Flight Track Log - Related Links

Times and Time Zones

All times are in EDT time to prevent confusion due to time zone crossing. See the EJA922 flight status page for this flight to view local times or setup timezone preferences in your user account.

Time Position Orientation Groundspeed Altitude Reporting Facility
EDT Latitude Longitude Course Direction KTS MPH feet Rate Location/Type
Mon 10:17:24 AM 40.8667 -72.6000 349° North 185 213 1,500  Level New York TRACON
Mon 10:18:24 AM 40.9333 -72.6167 349° North 220 253 5,800 3,850 Climbing New York TRACON
Mon 10:19:24 AM 40.9833 -72.6833 315° West 259 298 9,200 2,100 Climbing New York TRACON
Mon 10:20:24 AM 41.0333 -72.7667 309° West 341 392 10,000 231 Climbing New York TRACON
Mon 10:22:52 AM 41.1900 -73.0497 306° West 385 443 10,000 490 Level Boston Center
Mon 10:23:52 AM 41.2769 -73.1278 326° Northwest 377 434 11,700 1,750 Climbing Boston Center
Mon 10:24:52 AM 41.3642 -73.2089 325° Northwest 382 440 13,500 2,450 Climbing Boston Center
Mon 10:25:52 AM 41.4619 -73.2128 358° North 347 399 16,600 2,850 Climbing Boston Center
Mon 10:26:52 AM 41.5456 -73.1639 24° Northeast 331 381 19,200 2,850 Climbing Boston Center
Mon 10:27:52 AM 41.6272 -73.1178 23° Northeast 325 374 22,300 2,650 Climbing Boston Center
Mon 10:28:52 AM 41.7106 -73.1214 358° North 299 344 24,500 1,600 Climbing Boston Center
Mon 10:29:52 AM 41.8000 -73.1364 353° North 299 344 25,500 1,000 Climbing Boston Center
Mon 10:30:52 AM 41.9022 -73.1569 351° North 339 390 26,500 750 Climbing Boston Center
Mon 10:31:52 AM 42.0144 -73.1750 353° North 378 435 27,000 300 Climbing Boston Center
Mon 10:32:52 AM 42.1331 -73.2072 349° North 412 474 27,100 550 Climbing Boston Center
Mon 10:33:52 AM 42.2261 -73.3289 316° Northwest 428 493 28,100 950 Climbing Boston Center
Mon 10:34:52 AM 42.2683 -73.4894 290° West 431 496 29,000 1,000 Climbing Boston Center
Mon 10:35:52 AM 42.3083 -73.6586 288° West 459 528 30,100 1,100 Climbing Boston Center
Mon 10:36:52 AM 42.3439 -73.8444 285° West 476 548 31,200 1,200 Climbing Boston Center
Mon 10:37:52 AM 42.3853 -74.0197 288° West 487 560 32,500 1,400 Climbing Boston Center
Mon 10:38:52 AM 42.4222 -74.1894 286° West 487 560 34,000 1,400 Climbing Boston Center
Mon 10:39:52 AM 42.4514 -74.3283 286° West 482 555 35,300 1,500 Climbing Boston Center
Mon 10:40:52 AM 42.4919 -74.5153 286° West 477 549 37,000 1,700 Climbing Boston Center
Mon 10:41:52 AM 42.5283 -74.6856 286° West 477 549 38,700 1,500 Climbing Boston Center
Mon 10:42:52 AM 42.5644 -74.8531 286° West 477 549 40,000 650 Climbing Boston Center
Mon 10:43:52 AM 42.6022 -75.0325 286° West 483 556 40,000  Level Boston Center
Mon 10:44:52 AM 42.6436 -75.2206 287° West 502 578 40,000  Level Boston Center
Mon 10:45:52 AM 42.6861 -75.4286 286° West 509 586 40,000  Level Boston Center
Mon 10:46:52 AM 42.7269 -75.6228 286° West 522 601 40,000  Level Boston Center
Mon 10:48:04 AM 42.7672 -75.8172 286° West 528 608 40,000  Level Boston Center
Mon 10:50:04 AM 42.8500 -76.2167 286° West 530 610 40,000  Level Toronto Center
Mon 10:51:04 AM 42.8833 -76.4000 284° West 530 610 40,000  Level Toronto Center
Mon 10:52:04 AM 42.9167 -76.5833 284° West 520 598 40,000  Level Toronto Center
Mon 10:53:04 AM 42.9667 -76.7833 289° West 520 598 40,000  Level Toronto Center
Mon 10:54:04 AM 43.0000 -76.9667 284° West 520 598 40,000  Level Toronto Center
Mon 10:55:04 AM 43.0333 -77.1667 283° West 520 598 40,000  Level Toronto Center
Mon 10:56:04 AM 43.0667 -77.3500 284° West 520 598 40,000  Level Toronto Center
Mon 10:57:04 AM 43.1167 -77.5333 291° West 530 610 40,000  Level Toronto Center
Mon 10:58:04 AM 43.1667 -77.7333 289° West 520 598 40,000  Level Toronto Center
Mon 10:59:04 AM 43.2000 -77.9167 284° West 520 598 40,000  Level Toronto Center
Mon 11:00:04 AM 43.2333 -78.1167 283° West 520 598 40,000  Level Toronto Center
Mon 11:01:04 AM 43.2667 -78.3000 284° West 520 598 40,000  Level Toronto Center
Mon 11:02:04 AM 43.3167 -78.5167 288° West 520 598 40,000  Level Toronto Center
Mon 11:03:04 AM 43.3500 -78.7000 284° West 520 598 40,000  Level Toronto Center
Mon 11:04:04 AM 43.4000 -78.9000 289° West 520 598 40,000  Level Toronto Center
Mon 11:05:04 AM 43.4333 -79.0833 284° West 520 598 40,000  Level Toronto Center
Mon 11:06:04 AM 43.4667 -79.2833 283° West 520 598 40,000  Level Toronto Center
Mon 11:07:04 AM 43.5000 -79.4667 284° West 520 598 40,000  Level Toronto Center
Mon 11:08:04 AM 43.5333 -79.6500 284° West 520 598 40,000  Level Toronto Center
Mon 11:09:04 AM 43.5667 -79.8667 282° West 530 610 40,000  Level Toronto Center
Mon 11:10:04 AM 43.6167 -80.0500 291° West 520 598 40,000  Level Toronto Center
Mon 11:11:04 AM 43.6500 -80.2333 284° West 520 598 40,000  Level Toronto Center
Mon 11:12:04 AM 43.6833 -80.4333 283° West 520 598 40,000  Level Toronto Center
Mon 11:13:04 AM 43.7167 -80.6167 284° West 510 587 40,000  Level Toronto Center
Mon 11:14:04 AM 43.7333 -80.8333 276° West 520 598 40,000  Level Toronto Center
Mon 11:15:04 AM 43.7667 -81.0167 284° West 520 598 40,000  Level Toronto Center
Mon 11:16:04 AM 43.8167 -81.2000 291° West 520 598 40,000  Level Toronto Center
Mon 11:17:04 AM 43.8500 -81.3833 284° West 520 598 40,000  Level Toronto Center
Mon 11:18:04 AM 43.8833 -81.6000 282° West 520 598 40,000  Level Toronto Center
Mon 11:19:04 AM 43.9167 -81.7833 284° West 520 598 40,000  Level Toronto Center
Mon 11:20:04 AM 43.9333 -82.0000 276° West 520 598 40,000  Level Toronto Center
Mon 11:21:04 AM 43.9667 -82.1833 284° West 520 598 40,000  Level Toronto Center
Mon 11:22:48 AM 44.0389 -82.5167 287° West 522 601 40,000  Level Minneapolis Center
Mon 11:23:50 AM 44.0700 -82.7119 283° West 520 598 40,000  Level Minneapolis Center
Mon 11:24:52 AM 44.1006 -82.9083 282° West 520 598 40,000  Level Minneapolis Center
Mon 11:25:54 AM 44.1319 -83.1042 283° West 520 598 40,000  Level Minneapolis Center
Mon 11:26:56 AM 44.1678 -83.3383 282° West 518 596 40,000  Level Minneapolis Center
Mon 11:27:58 AM 44.1967 -83.5342 282° West 517 595 40,000  Level Minneapolis Center
Mon 11:29:00 AM 44.2278 -83.7281 283° West 515 593 40,000  Level Minneapolis Center
Mon 11:30:02 AM 44.2572 -83.9225 282° West 514 592 40,000  Level Minneapolis Center
Mon 11:31:04 AM 44.2858 -84.1175 282° West 513 590 40,000  Level Minneapolis Center
Mon 11:32:07 AM 44.3197 -84.3503 282° West 511 588 40,000  Level Minneapolis Center
Mon 11:33:09 AM 44.3478 -84.5450 281° West 511 588 40,000  Level Minneapolis Center
Mon 11:34:11 AM 44.3750 -84.7369 281° West 506 582 40,000  Level Minneapolis Center
Mon 11:35:13 AM 44.4014 -84.9300 281° West 507 583 40,000  Level Minneapolis Center
Mon 11:36:15 AM 44.4278 -85.1231 281° West 505 581 40,000  Level Minneapolis Center
Mon 11:37:17 AM 44.4542 -85.3167 281° West 507 583 40,000  Level Minneapolis Center
Mon 11:38:19 AM 44.4792 -85.5117 280° West 508 585 40,000  Level Minneapolis Center
Mon 11:39:21 AM 44.5092 -85.7450 280° West 506 582 40,000  Level Minneapolis Center
Mon 11:40:23 AM 44.5356 -85.9419 281° West 509 586 40,000  Level Minneapolis Center
Mon 11:41:25 AM 44.5608 -86.1389 280° West 506 582 40,000  Level Minneapolis Center
Mon 11:42:27 AM 44.5842 -86.3356 280° West 506 582 40,000  Level Minneapolis Center
Mon 11:43:29 AM 44.6097 -86.5300 281° West 505 581 40,000  Level Minneapolis Center
Mon 11:44:31 AM 44.6336 -86.7244 280° West 504 580 40,000  Level Minneapolis Center
Mon 11:45:34 AM 44.6575 -86.9183 280° West 505 581 40,000  Level Minneapolis Center
Mon 11:46:36 AM 44.6850 -87.1519 279° West 505 581 40,000  Level Minneapolis Center
Mon 11:47:38 AM 44.7078 -87.3467 279° West 506 582 40,000  Level Minneapolis Center
Mon 11:48:40 AM 44.7292 -87.5403 279° West 503 579 40,000  Level Minneapolis Center
Mon 11:49:42 AM 44.7514 -87.7361 279° West 506 582 40,000  Level Minneapolis Center
Mon 11:50:44 AM 44.7725 -87.9306 279° West 506 582 40,000  Level Minneapolis Center
Mon 11:51:46 AM 44.7939 -88.1242 279° West 504 580 40,000  Level Minneapolis Center
Mon 11:52:48 AM 44.8164 -88.3272 279° West 505 581 40,000  Level Minneapolis Center
Mon 11:53:50 AM 44.8403 -88.5553 278° West 507 583 40,000 -484 Level Minneapolis Center
Mon 11:54:52 AM 44.8608 -88.7511 278° West 505 581 39,000 -1,161 Descending Minneapolis Center
Mon 11:55:54 AM 44.8803 -88.9483 278° West 509 586 37,600 -1,258 Descending Minneapolis Center
Mon 11:56:56 AM 44.8967 -89.1133 278° West 511 588 36,400 -1,488 Descending Minneapolis Center
Mon 11:57:59 AM 44.9231 -89.3800 278° West 516 594 34,500 -1,584 Descending Minneapolis Center
Mon 11:59:01 AM 44.9417 -89.5792 278° West 512 589 33,100 -1,355 Descending Minneapolis Center
Mon 12:00:03 PM 44.9606 -89.7764 278° West 508 585 31,700 -1,488 Descending Minneapolis Center
Mon 12:01:06 PM 44.9789 -89.9733 278° West 506 582 30,000 -816 Descending Minneapolis Center
Mon 12:02:08 PM 44.9964 -90.1706 277° West 506 582 30,000  Level Minneapolis Center
Mon 12:03:10 PM 45.0139 -90.3664 277° West 502 578 30,000  Level Minneapolis Center
Mon 12:04:24 PM 45.0344 -90.6011 277° West 501 577 30,000 -657 Level Minneapolis Center
Mon 12:05:27 PM 45.0539 -90.8364 277° West 502 578 28,500 -1,584 Descending Minneapolis Center
Mon 12:06:29 PM 45.0675 -91.0244 276° West 501 577 26,700 -2,081 Descending Minneapolis Center
Mon 12:07:31 PM 45.0853 -91.2164 278° West 497 572 24,200 -2,419 Descending Minneapolis Center
Mon 12:08:33 PM 45.1000 -91.3997 277° West 481 554 21,700 -2,613 Descending Minneapolis Center
Mon 12:09:35 PM 45.1100 -91.6092 274° West 456 525 18,800 -2,565 Descending Minneapolis Center
Mon 12:10:37 PM 45.1142 -91.7772 272° West 438 504 16,400 -2,274 Descending Minneapolis Center
Mon 12:11:39 PM 45.1197 -91.9433 273° West 424 488 14,100 -1,839 Descending Minneapolis Center
Mon 12:12:54 PM 45.1236 -92.0847 272° West 361 415 12,200 -1,752 Descending Minneapolis Center
Mon 12:13:56 PM 45.1267 -92.2308 272° West 311 358 10,100 -1,756 Descending Minneapolis Center
Mon 12:14:57 PM 45.1292 -92.3400 272° West 282 325 8,600 -1,113 Descending Minneapolis Center
Mon 12:16:00 PM 45.1308 -92.4636 271° West 263 303 7,800 -1,200 Descending Minneapolis Center
Mon 12:17:02 PM 45.1053 -92.5644 250° West 276 318 6,100 -1,790 Descending Minneapolis Center
Mon 12:18:04 PM 45.0731 -92.6592 244° Southwest 271 312 4,100 -1,500 Descending Minneapolis Center
Mon 12:19:06 PM 45.0406 -92.7522 244° Southwest 265 305 3,000 -774 Descending Minneapolis Center
Mon 12:20:08 PM 45.0150 -92.8281 245° Southwest 217 250 2,500 -242 Descending Minneapolis Center
Mon 12:21:10 PM 44.9881 -92.9106 245° Southwest 196 226 2,500  Level Minneapolis Center
Mon 12:22:12 PM 44.9858 -92.9897 268° West 199 229 2,500 -194 Level Minneapolis Center
Mon 12:23:14 PM 44.9764 -93.0647 260° West 194 223 2,100 -768 Descending Minneapolis Center
Mon 12:24:17 PM 44.9400 -93.0661 182° South 143 165 900 -1,143 Descending Minneapolis Center
Mon 12:26:00 PM 44.9346 -93.0603 143° Southeast  Level Estimated

Login

Don't have an account? Register now (free) for customized features, flight alerts, and more!